createdAt,value
2023-12-05T00:00:03.857Z,100850.09
2023-12-05T00:03:14.845Z,100815.31
2023-12-05T00:06:16.838Z,100825.91
2023-12-05T00:09:18.816Z,100828.84
2023-12-05T00:12:20.828Z,100781.59
2023-12-05T00:15:23.332Z,100838.63
2023-12-05T00:18:26.289Z,100834.31
2023-12-05T00:21:28.261Z,100827.25
2023-12-05T00:24:30.712Z,100781.41
2023-12-05T00:27:33.052Z,100813.75
2023-12-05T00:30:34.986Z,100811.09
2023-12-05T00:33:37.092Z,100781.41
2023-12-05T00:36:39.310Z,100782.97
2023-12-05T00:39:42.401Z,100788.41
2023-12-05T00:42:45.434Z,100795.22
2023-12-05T00:45:47.446Z,100791.72
2023-12-05T00:48:49.813Z,100770.09
2023-12-05T00:51:51.953Z,100776.19
2023-12-05T00:54:54.001Z,100755.16
2023-12-05T00:57:56.446Z,100777.03
2023-12-05T01:00:59.128Z,100765.59
2023-12-05T01:04:01.548Z,100789.94
2023-12-05T01:07:04.220Z,100802.97
2023-12-05T01:10:06.886Z,100804.78
2023-12-05T01:13:08.957Z,100785.63
2023-12-05T01:16:12.118Z,100779.47
2023-12-05T01:19:14.141Z,100789.78
2023-12-05T01:22:16.141Z,100807.59
2023-12-05T01:25:18.378Z,100760.84
2023-12-05T01:28:20.262Z,100781.63
2023-12-05T01:31:22.693Z,100768.84
2023-12-05T01:34:24.840Z,100789.44
2023-12-05T01:37:26.789Z,100781.78
2023-12-05T01:40:28.822Z,100783.50
2023-12-05T01:43:31.291Z,100789.47
2023-12-05T01:46:33.676Z,100779.16
2023-12-05T01:49:37.072Z,100767.06
2023-12-05T01:52:47.949Z,100759.31
2023-12-05T01:55:51.020Z,100767.97
2023-12-05T01:58:53.018Z,100758.19
2023-12-05T02:01:55.744Z,100751.50
2023-12-05T02:04:58.311Z,100753.84
2023-12-05T02:08:01.317Z,100751.41
2023-12-05T02:11:03.567Z,100748.53
2023-12-05T02:14:08.360Z,100749.75
2023-12-05T02:17:25.685Z,100740.84
2023-12-05T02:20:37.001Z,100735.78
2023-12-05T02:24:03.691Z,100734.94
2023-12-05T02:27:39.438Z,100726.41
2023-12-05T02:30:41.966Z,100713.31
2023-12-05T02:33:44.007Z,100726.91
2023-12-05T02:36:57.015Z,100706.88
2023-12-05T02:40:05.603Z,100719.28
2023-12-05T02:43:17.391Z,100716.91
2023-12-05T02:46:21.019Z,100689.56
2023-12-05T02:49:23.619Z,100717.00
2023-12-05T02:52:25.631Z,100691.00
2023-12-05T02:55:27.526Z,100689.38
2023-12-05T02:58:30.279Z,100681.78
2023-12-05T03:01:39.598Z,100679.81
2023-12-05T03:04:41.652Z,100672.13
2023-12-05T03:07:43.692Z,100677.28
2023-12-05T03:10:54.742Z,100657.59
2023-12-05T03:14:03.983Z,100651.84
2023-12-05T03:17:06.042Z,100639.81
2023-12-05T03:20:08.698Z,100637.16
2023-12-05T03:23:10.884Z,100620.00
2023-12-05T03:26:20.608Z,100627.97
2023-12-05T03:29:22.519Z,100629.88
2023-12-05T03:32:24.632Z,100624.72
2023-12-05T03:35:26.616Z,100644.84
2023-12-05T03:38:28.525Z,100642.38
2023-12-05T03:41:30.549Z,100640.13
2023-12-05T03:44:32.522Z,100654.00
2023-12-05T03:47:34.560Z,100637.50
2023-12-05T03:50:36.636Z,100634.88
2023-12-05T03:53:38.580Z,100634.97
2023-12-05T03:56:40.506Z,100622.00
2023-12-05T03:59:42.560Z,100648.19
2023-12-05T04:02:46.305Z,100644.75
2023-12-05T04:05:48.329Z,100638.59
2023-12-05T04:08:51.288Z,100630.66
2023-12-05T04:11:53.354Z,100638.63
2023-12-05T04:14:55.705Z,100630.09
2023-12-05T04:17:57.872Z,100625.84
2023-12-05T04:20:59.988Z,100606.84
2023-12-05T04:24:01.949Z,100621.81
2023-12-05T04:27:04.913Z,100594.28
2023-12-05T04:30:08.083Z,100602.25
2023-12-05T04:33:10.227Z,100595.41
2023-12-05T04:36:12.762Z,100590.25
2023-12-05T04:39:14.828Z,100582.38
2023-12-05T04:42:16.858Z,100552.91
2023-12-05T04:45:18.812Z,100552.88
2023-12-05T04:48:20.887Z,100558.84
2023-12-05T04:51:22.873Z,100579.81
2023-12-05T04:54:24.972Z,100552.91
2023-12-05T04:57:29.615Z,100567.75
2023-12-05T05:00:32.910Z,100581.34
2023-12-05T05:03:34.940Z,100585.50
2023-12-05T05:06:37.055Z,100586.34
2023-12-05T05:09:42.058Z,100586.34
2023-12-05T05:12:44.054Z,100549.69
2023-12-05T05:15:46.185Z,100588.09
2023-12-05T05:18:49.151Z,100590.88
2023-12-05T05:21:51.315Z,100592.66
2023-12-05T05:24:53.422Z,100570.78
2023-12-05T05:27:55.581Z,100584.81
2023-12-05T05:30:58.870Z,100585.75
2023-12-05T05:34:01.088Z,100588.34
2023-12-05T05:37:03.632Z,100570.81
2023-12-05T05:40:08.016Z,100590.97
2023-12-05T05:43:10.673Z,100570.91
2023-12-05T05:46:13.082Z,100579.91
2023-12-05T05:49:15.156Z,100572.09
2023-12-05T05:52:17.168Z,100529.50
2023-12-05T05:55:26.119Z,100590.84
2023-12-05T05:58:29.249Z,100583.34
2023-12-05T06:01:31.435Z,100577.31
2023-12-05T06:04:33.477Z,100559.31
2023-12-05T06:07:35.686Z,100563.97
2023-12-05T06:10:37.664Z,100564.91
2023-12-05T06:13:39.671Z,100547.28
2023-12-05T06:16:41.685Z,100562.25
2023-12-05T06:19:43.790Z,100545.81
2023-12-05T06:22:45.817Z,100543.44
2023-12-05T06:25:47.754Z,100544.59
2023-12-05T06:28:49.745Z,100550.84
2023-12-05T06:31:51.670Z,100523.94
2023-12-05T06:34:53.627Z,100546.81
2023-12-05T06:37:55.680Z,100551.28
2023-12-05T06:40:57.689Z,100482.28
2023-12-05T06:43:59.600Z,100541.88
2023-12-05T06:47:01.548Z,100549.75
2023-12-05T06:50:12.414Z,100550.75
2023-12-05T06:53:14.961Z,100546.47
2023-12-05T06:56:17.612Z,100517.63
2023-12-05T06:59:20.743Z,100551.78
2023-12-05T07:02:22.676Z,100550.22
2023-12-05T07:05:24.794Z,100552.09
2023-12-05T07:08:28.044Z,100523.50
2023-12-05T07:11:29.961Z,100417.22
2023-12-05T07:14:35.917Z,100529.97
2023-12-05T07:17:38.987Z,100535.22
2023-12-05T07:20:41.139Z,100526.59
2023-12-05T07:23:46.671Z,100507.47
2023-12-05T07:26:51.886Z,100534.50
2023-12-05T07:29:53.845Z,100538.81
2023-12-05T07:32:55.936Z,100527.63
2023-12-05T07:35:59.024Z,100538.97
2023-12-05T07:39:00.977Z,100544.16
2023-12-05T07:42:02.983Z,100531.25
2023-12-05T07:45:06.762Z,100531.25
2023-12-05T07:48:08.728Z,100526.09
2023-12-05T07:51:15.817Z,100521.75
2023-12-05T07:54:18.210Z,100547.81
2023-12-05T07:57:23.681Z,100540.94
2023-12-05T08:00:25.761Z,100520.97
2023-12-05T08:03:27.865Z,100516.75
2023-12-05T08:06:30.032Z,100535.88
2023-12-05T08:09:32.288Z,100531.69
2023-12-05T08:12:35.248Z,100536.06
2023-12-05T08:15:37.341Z,100537.88
2023-12-05T08:18:39.332Z,100546.59
2023-12-05T08:21:41.306Z,100533.56
2023-12-05T08:24:43.313Z,100524.66
2023-12-05T08:27:45.331Z,100523.91
2023-12-05T08:30:47.240Z,100511.59
2023-12-05T08:33:49.863Z,100550.88
2023-12-05T08:36:52.111Z,100547.34
2023-12-05T08:39:54.124Z,100529.00
2023-12-05T08:42:56.099Z,100486.41
2023-12-05T08:45:58.117Z,100551.81
2023-12-05T08:49:00.169Z,100544.88
2023-12-05T08:52:02.253Z,100537.88
2023-12-05T08:55:05.730Z,100556.09
2023-12-05T08:58:07.991Z,100537.88
2023-12-05T09:01:13.165Z,100567.41
2023-12-05T09:04:15.456Z,100541.34
2023-12-05T09:07:17.615Z,100554.44
2023-12-05T09:10:20.351Z,100545.78
2023-12-05T09:13:22.505Z,100530.16
2023-12-05T09:16:24.480Z,100517.97
2023-12-05T09:19:26.409Z,100532.97
2023-12-05T09:22:29.423Z,100525.09
2023-12-05T09:25:31.326Z,100542.50
2023-12-05T09:28:33.792Z,100525.19
2023-12-05T09:31:36.360Z,100522.69
2023-12-05T09:34:38.517Z,100528.78
2023-12-05T09:37:40.494Z,100501.84
2023-12-05T09:40:42.445Z,100503.59
2023-12-05T09:43:46.082Z,100510.66
2023-12-05T09:46:52.208Z,100497.69
2023-12-05T09:49:56.607Z,100498.56
2023-12-05T09:53:00.812Z,100492.50
2023-12-05T09:56:03.261Z,100493.34
2023-12-05T09:59:05.159Z,100485.56
2023-12-05T10:02:09.557Z,100427.97
2023-12-05T10:05:17.290Z,100453.22
2023-12-05T10:08:21.852Z,100477.66
2023-12-05T10:11:28.381Z,100472.47
2023-12-05T10:14:30.452Z,100483.75
2023-12-05T10:17:34.550Z,100464.66
2023-12-05T10:20:39.773Z,100471.66
2023-12-05T10:23:41.951Z,100469.94
2023-12-05T10:26:48.316Z,100455.16
2023-12-05T10:29:50.314Z,100468.19
2023-12-05T10:32:52.276Z,100465.56
2023-12-05T10:35:54.496Z,100465.56
2023-12-05T10:38:56.695Z,100451.66
2023-12-05T10:41:58.619Z,100450.81
2023-12-05T10:45:06.364Z,100444.75
2023-12-05T10:48:08.829Z,100460.44
2023-12-05T10:51:10.940Z,100463.91
2023-12-05T10:54:14.313Z,100458.75
2023-12-05T10:57:16.279Z,100410.84
2023-12-05T11:00:20.006Z,100450.09
2023-12-05T11:03:23.557Z,100459.66
2023-12-05T11:06:27.436Z,100468.31
2023-12-05T11:09:29.463Z,100446.66
2023-12-05T11:12:32.269Z,100466.63
2023-12-05T11:15:40.069Z,100458.84
2023-12-05T11:18:45.187Z,100457.94
2023-12-05T11:22:12.000Z,100461.44
2023-12-05T11:25:25.507Z,100452.84
2023-12-05T11:28:27.464Z,100452.03
2023-12-05T11:31:38.522Z,100448.63
2023-12-05T11:35:00.379Z,100446.91
2023-12-05T11:38:13.782Z,100405.13
2023-12-05T11:41:22.295Z,100444.31
2023-12-05T11:44:24.397Z,100427.84
2023-12-05T11:47:29.786Z,100437.41
2023-12-05T11:50:49.998Z,100429.63
2023-12-05T11:53:51.935Z,100427.03
2023-12-05T11:57:11.725Z,100426.19
2023-12-05T12:00:14.416Z,100406.19
2023-12-05T12:03:16.497Z,100400.06
2023-12-05T12:06:20.558Z,100430.50
2023-12-05T12:09:23.282Z,100419.22
2023-12-05T12:12:25.810Z,100414.84
2023-12-05T12:15:37.314Z,100393.03
2023-12-05T12:18:44.136Z,100415.69
2023-12-05T12:21:53.279Z,100345.13
2023-12-05T12:25:06.406Z,100367.03
2023-12-05T12:28:08.302Z,100335.66
2023-12-05T12:31:25.960Z,100398.28
2023-12-05T12:34:28.746Z,100378.38
2023-12-05T12:37:37.699Z,100381.06
2023-12-05T12:40:44.975Z,100368.94
2023-12-05T12:43:47.815Z,100403.69
2023-12-05T12:46:49.714Z,100388.97
2023-12-05T12:49:52.301Z,100395.03
2023-12-05T12:52:55.980Z,100387.25
2023-12-05T12:55:58.098Z,100388.88
2023-12-05T12:59:04.306Z,100369.66
2023-12-05T13:02:07.679Z,100406.22
2023-12-05T13:05:09.915Z,100360.91
2023-12-05T13:08:14.648Z,100418.31
2023-12-05T13:11:18.156Z,100386.16
2023-12-05T13:14:20.911Z,100402.75
2023-12-05T13:17:23.194Z,100398.38
2023-12-05T13:20:25.396Z,100304.31
2023-12-05T13:23:27.413Z,100394.09
2023-12-05T13:26:29.472Z,100335.72
2023-12-05T13:29:31.627Z,100399.28
2023-12-05T13:32:33.626Z,100398.38
2023-12-05T13:35:35.624Z,100407.00
2023-12-05T13:38:41.248Z,100407.00
2023-12-05T13:41:43.783Z,100413.91
2023-12-05T13:44:46.314Z,100406.94
2023-12-05T13:47:48.414Z,100352.91
2023-12-05T13:50:50.430Z,100386.00
2023-12-05T13:53:52.464Z,100391.22
2023-12-05T13:56:54.964Z,100394.66
2023-12-05T13:59:56.931Z,100402.50
2023-12-05T14:02:58.920Z,100410.31
2023-12-05T14:06:01.309Z,100403.25
2023-12-05T14:09:03.995Z,100409.38
2023-12-05T14:12:12.714Z,100438.91
2023-12-05T14:15:14.960Z,100424.16
2023-12-05T14:18:17.004Z,100418.84
2023-12-05T14:21:19.091Z,100419.78
2023-12-05T14:24:20.963Z,100424.91
2023-12-05T14:27:25.792Z,100439.66
2023-12-05T14:30:28.116Z,100437.03
2023-12-05T14:33:30.246Z,100432.69
2023-12-05T14:36:32.344Z,100439.63
2023-12-05T14:39:34.278Z,100378.56
2023-12-05T14:42:38.877Z,100449.06
2023-12-05T14:45:41.206Z,100453.38
2023-12-05T14:48:43.236Z,100401.88
2023-12-05T14:51:45.175Z,100453.28
2023-12-05T14:54:47.261Z,100413.28
2023-12-05T14:57:50.140Z,100431.53
2023-12-05T15:00:55.145Z,100376.69
2023-12-05T15:03:57.622Z,100442.84
2023-12-05T15:07:00.099Z,100451.63
2023-12-05T15:10:02.631Z,100444.63
2023-12-05T15:13:04.713Z,100448.09
2023-12-05T15:16:06.986Z,100437.69
2023-12-05T15:19:10.551Z,100445.50
2023-12-05T15:22:12.624Z,100440.31
2023-12-05T15:25:14.847Z,100429.91
2023-12-05T15:28:18.142Z,100449.00
2023-12-05T15:31:20.267Z,100435.19
2023-12-05T15:34:22.544Z,100429.16
2023-12-05T15:37:24.687Z,100429.09
2023-12-05T15:40:27.117Z,100415.16
2023-12-05T15:43:29.008Z,100429.19
2023-12-05T15:46:31.006Z,100416.97
2023-12-05T15:49:33.926Z,100422.16
2023-12-05T15:52:36.935Z,100437.00
2023-12-05T15:55:38.989Z,100400.41
2023-12-05T15:58:42.544Z,100402.97
2023-12-05T16:01:47.380Z,100443.09
2023-12-05T16:04:50.047Z,100430.13
2023-12-05T16:07:52.040Z,100385.69
2023-12-05T16:10:54.029Z,100428.41
2023-12-05T16:13:56.181Z,100428.41
2023-12-05T16:16:58.607Z,100394.47
2023-12-05T16:20:00.710Z,100378.72
2023-12-05T16:23:02.678Z,100429.25
2023-12-05T16:26:05.127Z,100415.28
2023-12-05T16:29:07.224Z,100407.47
2023-12-05T16:32:09.199Z,100417.94
2023-12-05T16:35:12.044Z,100424.94
2023-12-05T16:38:13.996Z,100428.41
2023-12-05T16:41:16.421Z,100421.53
2023-12-05T16:44:18.307Z,100414.66
2023-12-05T16:47:21.109Z,100417.19
2023-12-05T16:50:23.304Z,100423.34
2023-12-05T16:53:25.334Z,100411.16
2023-12-05T16:56:27.422Z,100419.78
2023-12-05T16:59:33.983Z,100412.00
2023-12-05T17:02:37.315Z,100430.28
2023-12-05T17:05:41.042Z,100435.50
2023-12-05T17:08:43.034Z,100430.31
2023-12-05T17:11:45.671Z,100419.88
2023-12-05T17:14:47.758Z,100428.56
2023-12-05T17:17:49.736Z,100412.84
2023-12-05T17:20:51.746Z,100427.69
2023-12-05T17:23:55.745Z,100418.13
2023-12-05T17:26:57.803Z,100425.09
2023-12-05T17:29:59.778Z,100421.66
2023-12-05T17:33:01.863Z,100415.63
2023-12-05T17:36:04.072Z,100399.84
2023-12-05T17:39:06.032Z,100428.63
2023-12-05T17:42:07.947Z,100425.16
2023-12-05T17:45:10.279Z,100428.63
2023-12-05T17:48:12.377Z,100428.69
2023-12-05T17:51:14.488Z,100432.16
2023-12-05T17:54:17.518Z,100434.75
2023-12-05T17:57:23.128Z,100438.22
2023-12-05T18:00:25.104Z,100437.38
2023-12-05T18:03:27.555Z,100398.16
2023-12-05T18:06:29.795Z,100382.56
2023-12-05T18:09:31.830Z,100432.22
2023-12-05T18:12:34.538Z,100404.34
2023-12-05T18:15:36.657Z,100439.25
2023-12-05T18:18:38.815Z,100438.34
2023-12-05T18:21:40.976Z,100444.44
2023-12-05T18:24:43.115Z,100429.69
2023-12-05T18:27:45.872Z,100444.41
2023-12-05T18:30:47.983Z,100416.72
2023-12-05T18:33:51.318Z,100418.47
2023-12-05T18:36:58.157Z,100410.66
2023-12-05T18:40:00.668Z,100424.53
2023-12-05T18:43:02.687Z,100417.63
2023-12-05T18:46:05.706Z,100403.72
2023-12-05T18:49:08.292Z,100413.31
2023-12-05T18:52:10.384Z,100407.25
2023-12-05T18:55:12.757Z,100381.88
2023-12-05T18:58:14.675Z,100440.03
2023-12-05T19:01:16.908Z,100420.97
2023-12-05T19:04:19.269Z,100413.13
2023-12-05T19:07:21.534Z,100419.22
2023-12-05T19:10:24.000Z,100401.75
2023-12-05T19:13:25.999Z,100325.00
2023-12-05T19:16:27.961Z,100422.66
2023-12-05T19:19:30.015Z,100421.84
2023-12-05T19:22:31.981Z,100421.84
2023-12-05T19:25:34.151Z,100406.25
2023-12-05T19:28:46.209Z,100409.81
2023-12-05T19:31:53.545Z,100402.81
2023-12-05T19:34:55.640Z,100403.75
2023-12-05T19:37:57.683Z,100408.94
2023-12-05T19:40:59.671Z,100360.16
2023-12-05T19:44:01.691Z,100400.22
2023-12-05T19:47:03.965Z,100387.13
2023-12-05T19:50:06.789Z,100412.41
2023-12-05T19:53:08.781Z,100395.94
2023-12-05T19:56:12.841Z,100389.84
2023-12-05T19:59:15.065Z,100382.88
2023-12-05T20:02:17.104Z,100393.31
2023-12-05T20:05:19.159Z,100387.22
2023-12-05T20:08:21.768Z,100402.00
2023-12-05T20:11:23.822Z,100389.75
2023-12-05T20:14:25.838Z,100393.22
2023-12-05T20:17:29.513Z,100390.53
2023-12-05T20:20:31.766Z,100412.16
2023-12-05T20:23:34.945Z,100394.78
2023-12-05T20:26:36.892Z,100397.41
2023-12-05T20:29:38.892Z,100386.13
2023-12-05T20:32:40.841Z,100367.94
2023-12-05T20:35:42.840Z,100373.13
2023-12-05T20:38:45.747Z,100374.03
2023-12-05T20:41:47.888Z,100355.88
2023-12-05T20:44:51.708Z,100315.84
2023-12-05T20:47:53.735Z,100355.06
2023-12-05T20:50:55.760Z,100353.34
2023-12-05T20:53:57.687Z,100324.56
2023-12-05T20:56:59.705Z,100355.97
2023-12-05T21:00:02.297Z,100348.91
2023-12-05T21:03:04.934Z,100352.41
2023-12-05T21:06:08.771Z,100348.91
2023-12-05T21:09:13.481Z,100336.66
2023-12-05T21:12:15.883Z,100344.44
2023-12-05T21:15:18.172Z,100357.56
2023-12-05T21:18:20.443Z,100356.69
2023-12-05T21:21:22.737Z,100355.00
2023-12-05T21:24:24.801Z,100294.13
2023-12-05T21:27:26.788Z,100349.00
2023-12-05T21:30:28.665Z,100354.22
2023-12-05T21:33:30.822Z,100346.44
2023-12-05T21:36:33.239Z,100344.69
2023-12-05T21:39:35.343Z,100344.63
2023-12-05T21:42:37.330Z,100322.00
2023-12-05T21:45:39.549Z,100350.72
2023-12-05T21:48:41.595Z,100355.06
2023-12-05T21:51:43.835Z,100338.59
2023-12-05T21:54:45.836Z,100341.22
2023-12-05T21:57:47.895Z,100333.47
2023-12-05T22:00:49.978Z,100337.75
2023-12-05T22:03:51.979Z,100280.25
2023-12-05T22:06:53.967Z,100332.38
2023-12-05T22:09:56.003Z,100345.47
2023-12-05T22:12:58.070Z,100351.50
2023-12-05T22:16:01.170Z,100341.97
2023-12-05T22:19:03.393Z,100355.81
2023-12-05T22:22:05.536Z,100340.16
2023-12-05T22:25:07.944Z,100333.13
2023-12-05T22:28:09.972Z,100340.13
2023-12-05T22:31:14.795Z,100343.63
2023-12-05T22:34:18.370Z,100341.03
2023-12-05T22:37:21.265Z,100341.94
2023-12-05T22:40:23.380Z,100337.56
2023-12-05T22:43:46.805Z,100320.03
2023-12-05T22:46:52.104Z,100341.75
2023-12-05T22:49:54.103Z,100351.22
2023-12-05T22:52:56.109Z,100331.19
2023-12-05T22:55:57.987Z,100329.41
2023-12-05T22:58:59.991Z,100329.41
2023-12-05T23:02:01.921Z,100334.59
2023-12-05T23:05:04.708Z,100313.69
2023-12-05T23:08:06.667Z,100340.53
2023-12-05T23:11:08.651Z,100321.38
2023-12-05T23:14:10.872Z,100317.03
2023-12-05T23:17:13.233Z,100285.63
2023-12-05T23:20:15.542Z,100327.34
2023-12-05T23:23:17.487Z,100329.03
2023-12-05T23:26:19.995Z,100329.75
2023-12-05T23:29:21.952Z,100315.84
2023-12-05T23:32:23.923Z,100300.22
2023-12-05T23:35:25.837Z,100303.69
2023-12-05T23:38:27.813Z,100307.06
2023-12-05T23:41:29.789Z,100286.16
2023-12-05T23:44:31.783Z,100302.78
2023-12-05T23:47:33.766Z,100293.16
2023-12-05T23:50:35.774Z,100300.19
2023-12-05T23:53:37.709Z,100302.75
2023-12-05T23:56:39.919Z,100287.00
2023-12-05T23:59:41.925Z,100247.84
